EJU12LE LPPR-LEMH
Flight info
| Callsign | EJU12LE |
|---|---|
| Flight time | 1h 33m |
| Altitude | 31000 |
| Route | PESUL DCT RIVRO DCT BARDI/N0418F320 M191 DIPOL/N0431F360 M871 NVS/N0434F370 DCT NANDO/N0430F360 M871 ORVUS DCT GODOX M871 PTC |
| Aircraft | A320/M-SDE2E3FGHIJ1RWXYZ/LB1 |
Departure
| Time | 2026-05-05 10:31 |
|---|---|
| Airport | Francisco de Sá Carneiro Airport (LPPR) |
Arrival
| Time | 2026-05-05 12:04 |
|---|---|
| Airport | Menorca Airport (LEMH) |
| Time | Latitude | Longitude | Altitude | Speed | Heading |
|---|---|---|---|---|---|
| 2026-05-05 10:25 | 41.23635 | -8.67318 | 243 ft | 4 kts | 132° |
| 2026-05-05 10:26 | 41.23656 | -8.67337 | 242 ft | 4 kts | 164° |
| 2026-05-05 10:26 | 41.23665 | -8.67340 | 242 ft | 0 kts | 169° |
| 2026-05-05 10:28 | 41.23622 | -8.67330 | 242 ft | 17 kts | 174° |
| 2026-05-05 10:28 | 41.23535 | -8.67377 | 240 ft | 20 kts | 205° |
| 2026-05-05 10:28 | 41.23358 | -8.67379 | 237 ft | 13 kts | 209° |
| 2026-05-05 10:29 | 41.23326 | -8.67453 | 238 ft | 15 kts | 254° |
| 2026-05-05 10:29 | 41.23306 | -8.67598 | 235 ft | 17 kts | 261° |
| 2026-05-05 10:29 | 41.23301 | -8.67718 | 238 ft | 8 kts | 284° |
| 2026-05-05 10:29 | 41.23326 | -8.67739 | 238 ft | 0 kts | 353° |
| 2026-05-05 10:30 | 41.23327 | -8.67740 | 238 ft | 2 kts | 353° |
| 2026-05-05 10:30 | 41.23517 | -8.67787 | 235 ft | 65 kts | 349° |
| 2026-05-05 10:30 | 41.24179 | -8.67963 | 218 ft | 126 kts | 349° |
| 2026-05-05 10:30 | 41.25188 | -8.68229 | 355 ft | 159 kts | 346° |
| 2026-05-05 10:31 | 41.26271 | -8.68510 | 1057 ft | 160 kts | 348° |
| 2026-05-05 10:31 | 41.27383 | -8.68801 | 1770 ft | 169 kts | 347° |
| 2026-05-05 10:31 | 41.28606 | -8.69126 | 2168 ft | 190 kts | 348° |
| 2026-05-05 10:31 | 41.29986 | -8.69490 | 2463 ft | 215 kts | 348° |
| 2026-05-05 10:32 | 41.31536 | -8.69899 | 2847 ft | 239 kts | 348° |
| 2026-05-05 10:32 | 41.33224 | -8.70345 | 3488 ft | 253 kts | 348° |
| 2026-05-05 10:32 | 41.34965 | -8.70803 | 4425 ft | 256 kts | 347° |
| 2026-05-05 10:32 | 41.36715 | -8.71263 | 5388 ft | 258 kts | 347° |
| 2026-05-05 10:33 | 41.38459 | -8.71713 | 6328 ft | 259 kts | 349° |
| 2026-05-05 10:33 | 41.40268 | -8.71626 | 7183 ft | 266 kts | 13° |
| 2026-05-05 10:33 | 41.41919 | -8.70453 | 8009 ft | 276 kts | 39° |
| 2026-05-05 10:33 | 41.43032 | -8.68337 | 8868 ft | 288 kts | 66° |
| 2026-05-05 10:34 | 41.43504 | -8.65708 | 9716 ft | 294 kts | 76° |
| 2026-05-05 10:34 | 41.43573 | -8.62954 | 10480 ft | 304 kts | 94° |
| 2026-05-05 10:34 | 41.42988 | -8.60144 | 10798 ft | 330 kts | 114° |
| 2026-05-05 10:34 | 41.41626 | -8.57571 | 11147 ft | 350 kts | 136° |
| 2026-05-05 10:35 | 41.39649 | -8.55628 | 11796 ft | 357 kts | 147° |
| 2026-05-05 10:35 | 41.37555 | -8.53833 | 12510 ft | 361 kts | 147° |
| 2026-05-05 10:35 | 41.35424 | -8.51996 | 13236 ft | 366 kts | 147° |
| 2026-05-05 10:35 | 41.33281 | -8.50144 | 13949 ft | 370 kts | 147° |
| 2026-05-05 10:36 | 41.31111 | -8.48268 | 14574 ft | 374 kts | 147° |
| 2026-05-05 10:36 | 41.28925 | -8.46380 | 15180 ft | 377 kts | 147° |
| 2026-05-05 10:36 | 41.26710 | -8.44467 | 15813 ft | 381 kts | 147° |
| 2026-05-05 10:36 | 41.24475 | -8.42538 | 16401 ft | 385 kts | 148° |
| 2026-05-05 10:37 | 41.22217 | -8.40588 | 17004 ft | 389 kts | 148° |
| 2026-05-05 10:37 | 41.19940 | -8.38624 | 17614 ft | 393 kts | 148° |
| 2026-05-05 10:37 | 41.17634 | -8.36636 | 18225 ft | 397 kts | 148° |
| 2026-05-05 10:37 | 41.15306 | -8.34633 | 18759 ft | 401 kts | 148° |
| 2026-05-05 10:38 | 41.12954 | -8.32617 | 19321 ft | 404 kts | 148° |
| 2026-05-05 10:38 | 41.10591 | -8.30600 | 19835 ft | 407 kts | 148° |
| 2026-05-05 10:38 | 41.08197 | -8.28556 | 20346 ft | 410 kts | 148° |
| 2026-05-05 10:38 | 41.05790 | -8.26501 | 20854 ft | 414 kts | 148° |
| 2026-05-05 10:39 | 41.03357 | -8.24421 | 21315 ft | 418 kts | 149° |
| 2026-05-05 10:39 | 41.00902 | -8.22323 | 21795 ft | 422 kts | 149° |
| 2026-05-05 10:39 | 40.98429 | -8.20213 | 22298 ft | 425 kts | 149° |
| 2026-05-05 10:39 | 40.95929 | -8.18087 | 22781 ft | 429 kts | 149° |
| 2026-05-05 10:40 | 40.93420 | -8.15922 | 23245 ft | 433 kts | 146° |
| 2026-05-05 10:40 | 40.91117 | -8.13334 | 23686 ft | 438 kts | 135° |
| 2026-05-05 10:40 | 40.89171 | -8.10214 | 24048 ft | 442 kts | 123° |
| 2026-05-05 10:40 | 40.87664 | -8.06667 | 24414 ft | 444 kts | 112° |
| 2026-05-05 10:41 | 40.86643 | -8.02816 | 24757 ft | 445 kts | 101° |
| 2026-05-05 10:41 | 40.85928 | -7.98854 | 25102 ft | 448 kts | 101° |
| 2026-05-05 10:41 | 40.85205 | -7.94837 | 25380 ft | 453 kts | 101° |
| 2026-05-05 10:41 | 40.84476 | -7.90821 | 25662 ft | 458 kts | 101° |
| 2026-05-05 10:42 | 40.82968 | -7.82582 | 26347 ft | 465 kts | 102° |
| 2026-05-05 10:42 | 40.82206 | -7.78423 | 26680 ft | 468 kts | 102° |
| 2026-05-05 10:42 | 40.81440 | -7.74229 | 27012 ft | 471 kts | 102° |
| 2026-05-05 10:43 | 40.80668 | -7.70017 | 27343 ft | 474 kts | 102° |
| 2026-05-05 10:43 | 40.79888 | -7.65772 | 27664 ft | 477 kts | 102° |
| 2026-05-05 10:43 | 40.79100 | -7.61508 | 27998 ft | 480 kts | 102° |
| 2026-05-05 10:43 | 40.78308 | -7.57216 | 28386 ft | 482 kts | 102° |
| 2026-05-05 10:44 | 40.77516 | -7.52918 | 28742 ft | 484 kts | 102° |
| 2026-05-05 10:44 | 40.76716 | -7.48584 | 29072 ft | 487 kts | 103° |
| 2026-05-05 10:44 | 40.75910 | -7.44239 | 29384 ft | 490 kts | 103° |
| 2026-05-05 10:44 | 40.75092 | -7.39857 | 29692 ft | 493 kts | 103° |
| 2026-05-05 10:45 | 40.74274 | -7.35465 | 29988 ft | 495 kts | 103° |
| 2026-05-05 10:45 | 40.73447 | -7.31043 | 30259 ft | 498 kts | 103° |
| 2026-05-05 10:45 | 40.72614 | -7.26610 | 30514 ft | 500 kts | 103° |
| 2026-05-05 10:45 | 40.71775 | -7.22149 | 30769 ft | 502 kts | 103° |
| 2026-05-05 10:46 | 40.70933 | -7.17677 | 31012 ft | 503 kts | 104° |
| 2026-05-05 10:46 | 40.69279 | -7.08883 | 31065 ft | 481 kts | 104° |
| 2026-05-05 10:47 | 40.67667 | -7.00358 | 31080 ft | 479 kts | 104° |
| 2026-05-05 10:47 | 40.66046 | -6.91853 | 31077 ft | 479 kts | 104° |
| 2026-05-05 10:48 | 40.64412 | -6.83355 | 31095 ft | 478 kts | 105° |
| 2026-05-05 10:48 | 40.62786 | -6.74887 | 31076 ft | 476 kts | 105° |
| 2026-05-05 10:49 | 40.61735 | -6.66302 | 31067 ft | 476 kts | 97° |
| 2026-05-05 10:49 | 40.60941 | -6.57668 | 31061 ft | 475 kts | 97° |
| 2026-05-05 10:50 | 40.60138 | -6.49094 | 31052 ft | 475 kts | 97° |
| 2026-05-05 10:50 | 40.59328 | -6.40471 | 31038 ft | 475 kts | 98° |
| 2026-05-05 10:51 | 40.58505 | -6.31840 | 31036 ft | 476 kts | 98° |
| 2026-05-05 10:51 | 40.57676 | -6.23193 | 31034 ft | 477 kts | 98° |
| 2026-05-05 10:52 | 40.56843 | -6.14542 | 31030 ft | 477 kts | 98° |
| 2026-05-05 10:52 | 40.56003 | -6.05889 | 31040 ft | 477 kts | 99° |
| 2026-05-05 10:53 | 40.55149 | -5.97193 | 31296 ft | 483 kts | 99° |
| 2026-05-05 10:53 | 40.54716 | -5.92808 | 31649 ft | 484 kts | 99° |
| 2026-05-05 10:53 | 40.54279 | -5.88424 | 31971 ft | 484 kts | 99° |
| 2026-05-05 10:54 | 40.53407 | -5.79665 | 32049 ft | 483 kts | 99° |
| 2026-05-05 10:54 | 40.52536 | -5.70912 | 32053 ft | 482 kts | 99° |
| 2026-05-05 10:55 | 40.51655 | -5.62154 | 32049 ft | 484 kts | 99° |
| 2026-05-05 10:55 | 40.50752 | -5.53387 | 32036 ft | 484 kts | 100° |
| 2026-05-05 10:56 | 40.49848 | -5.44626 | 32037 ft | 484 kts | 100° |
| 2026-05-05 10:56 | 40.48944 | -5.35859 | 32042 ft | 484 kts | 100° |
| 2026-05-05 10:57 | 40.48032 | -5.27097 | 32042 ft | 485 kts | 101° |
| 2026-05-05 10:57 | 40.47112 | -5.18389 | 32037 ft | 484 kts | 101° |
| 2026-05-05 10:58 | 40.46186 | -5.09620 | 32024 ft | 485 kts | 101° |
| 2026-05-05 10:58 | 40.45252 | -5.00859 | 32016 ft | 485 kts | 101° |
| 2026-05-05 10:59 | 40.44309 | -4.92090 | 32007 ft | 485 kts | 101° |
| 2026-05-05 10:59 | 40.43356 | -4.83322 | 32002 ft | 485 kts | 101° |
| 2026-05-05 11:00 | 40.42398 | -4.74556 | 32006 ft | 488 kts | 101° |
| 2026-05-05 11:00 | 40.41907 | -4.70126 | 32125 ft | 494 kts | 102° |
| 2026-05-05 11:00 | 40.41408 | -4.65635 | 32256 ft | 500 kts | 101° |
| 2026-05-05 11:00 | 40.40909 | -4.61117 | 32460 ft | 503 kts | 101° |
| 2026-05-05 11:01 | 40.40411 | -4.56564 | 32753 ft | 504 kts | 102° |
| 2026-05-05 11:01 | 40.39914 | -4.52021 | 33108 ft | 503 kts | 102° |
| 2026-05-05 11:01 | 40.39412 | -4.47483 | 33440 ft | 502 kts | 102° |
| 2026-05-05 11:01 | 40.38907 | -4.42952 | 33749 ft | 501 kts | 102° |
| 2026-05-05 11:02 | 40.38397 | -4.38432 | 34039 ft | 502 kts | 102° |
| 2026-05-05 11:02 | 40.37884 | -4.33901 | 34295 ft | 502 kts | 102° |
| 2026-05-05 11:02 | 40.37371 | -4.29383 | 34571 ft | 501 kts | 102° |
| 2026-05-05 11:02 | 40.37162 | -4.27543 | 34692 ft | 501 kts | 102° |
| 2026-05-05 11:03 | 40.36612 | -4.23046 | 34989 ft | 498 kts | 104° |
| 2026-05-05 11:03 | 40.35949 | -4.18597 | 35263 ft | 497 kts | 106° |
| 2026-05-05 11:03 | 40.35187 | -4.14188 | 35542 ft | 495 kts | 107° |
| 2026-05-05 11:03 | 40.34369 | -4.09813 | 35806 ft | 493 kts | 108° |
| 2026-05-05 11:04 | 40.33537 | -4.05461 | 35973 ft | 493 kts | 108° |
| 2026-05-05 11:04 | 40.31914 | -3.96726 | 36001 ft | 493 kts | 107° |
| 2026-05-05 11:05 | 40.30377 | -3.87977 | 35997 ft | 493 kts | 107° |
| 2026-05-05 11:05 | 40.28852 | -3.79236 | 36001 ft | 492 kts | 107° |
| 2026-05-05 11:06 | 40.27308 | -3.70520 | 36030 ft | 491 kts | 107° |
| 2026-05-05 11:06 | 40.25755 | -3.61825 | 36031 ft | 490 kts | 107° |
| 2026-05-05 11:07 | 40.24192 | -3.53132 | 36017 ft | 490 kts | 107° |
| 2026-05-05 11:07 | 40.22625 | -3.44457 | 36004 ft | 490 kts | 107° |
| 2026-05-05 11:08 | 40.21055 | -3.35772 | 35987 ft | 491 kts | 108° |
| 2026-05-05 11:08 | 40.19477 | -3.27081 | 35965 ft | 491 kts | 108° |
| 2026-05-05 11:09 | 40.17887 | -3.18389 | 35972 ft | 492 kts | 108° |
| 2026-05-05 11:09 | 40.16285 | -3.09690 | 35979 ft | 492 kts | 108° |
| 2026-05-05 11:10 | 40.14691 | -3.01053 | 35958 ft | 492 kts | 108° |
| 2026-05-05 11:10 | 40.13079 | -2.92349 | 35968 ft | 493 kts | 109° |
| 2026-05-05 11:11 | 40.11451 | -2.83634 | 35973 ft | 494 kts | 109° |
| 2026-05-05 11:11 | 40.09820 | -2.74910 | 35976 ft | 495 kts | 109° |
| 2026-05-05 11:12 | 40.08186 | -2.66182 | 35977 ft | 495 kts | 109° |
| 2026-05-05 11:12 | 40.06531 | -2.57456 | 35975 ft | 496 kts | 109° |
| 2026-05-05 11:13 | 40.04875 | -2.48720 | 35977 ft | 496 kts | 109° |
| 2026-05-05 11:13 | 40.03211 | -2.39982 | 35980 ft | 497 kts | 109° |
| 2026-05-05 11:14 | 40.01539 | -2.31240 | 35984 ft | 497 kts | 109° |
| 2026-05-05 11:14 | 39.99859 | -2.22497 | 35952 ft | 497 kts | 109° |
| 2026-05-05 11:15 | 39.98131 | -2.13778 | 35967 ft | 496 kts | 111° |
| 2026-05-05 11:15 | 39.96157 | -2.05171 | 35978 ft | 495 kts | 113° |
| 2026-05-05 11:16 | 39.94075 | -1.96635 | 35976 ft | 495 kts | 113° |
| 2026-05-05 11:16 | 39.92044 | -1.88126 | 35965 ft | 495 kts | 113° |
| 2026-05-05 11:17 | 39.90367 | -1.80939 | 35974 ft | 495 kts | 112° |
| 2026-05-05 11:17 | 39.88051 | -1.70989 | 35984 ft | 494 kts | 113° |
| 2026-05-05 11:18 | 39.86362 | -1.63834 | 35996 ft | 493 kts | 113° |
| 2026-05-05 11:18 | 39.84338 | -1.55305 | 35988 ft | 492 kts | 113° |
| 2026-05-05 11:19 | 39.82301 | -1.46794 | 35985 ft | 492 kts | 114° |
| 2026-05-05 11:19 | 39.80242 | -1.38319 | 35999 ft | 488 kts | 118° |
| 2026-05-05 11:19 | 39.78807 | -1.34383 | 35961 ft | 476 kts | 129° |
| 2026-05-05 11:20 | 39.76945 | -1.30900 | 35970 ft | 464 kts | 139° |
| 2026-05-05 11:20 | 39.74744 | -1.27920 | 35977 ft | 452 kts | 148° |
| 2026-05-05 11:20 | 39.72289 | -1.25471 | 35982 ft | 440 kts | 157° |
| 2026-05-05 11:20 | 39.69644 | -1.23575 | 35990 ft | 429 kts | 166° |
| 2026-05-05 11:21 | 39.66925 | -1.21992 | 35987 ft | 428 kts | 166° |
| 2026-05-05 11:21 | 39.61488 | -1.18824 | 35984 ft | 429 kts | 166° |
| 2026-05-05 11:22 | 39.56241 | -1.14966 | 35952 ft | 448 kts | 150° |
| 2026-05-05 11:22 | 39.53981 | -1.12102 | 35957 ft | 462 kts | 138° |
| 2026-05-05 11:22 | 39.52122 | -1.08640 | 35959 ft | 475 kts | 127° |
| 2026-05-05 11:23 | 39.48888 | -1.01173 | 35966 ft | 476 kts | 128° |
| 2026-05-05 11:23 | 39.45620 | -0.93725 | 35946 ft | 476 kts | 128° |
| 2026-05-05 11:24 | 39.42342 | -0.86283 | 35936 ft | 476 kts | 128° |
| 2026-05-05 11:24 | 39.39095 | -0.78889 | 35941 ft | 476 kts | 128° |
| 2026-05-05 11:25 | 39.35817 | -0.71463 | 35916 ft | 475 kts | 128° |
| 2026-05-05 11:25 | 39.32538 | -0.64088 | 35920 ft | 471 kts | 128° |
| 2026-05-05 11:26 | 39.29645 | -0.56442 | 35931 ft | 483 kts | 114° |
| 2026-05-05 11:26 | 39.28858 | -0.52193 | 35932 ft | 491 kts | 103° |
| 2026-05-05 11:26 | 39.28628 | -0.47770 | 35930 ft | 497 kts | 92° |
| 2026-05-05 11:27 | 39.29117 | -0.38832 | 35925 ft | 500 kts | 89° |
| 2026-05-05 11:27 | 39.29591 | -0.29883 | 35926 ft | 500 kts | 90° |
| 2026-05-05 11:28 | 39.30041 | -0.20927 | 35928 ft | 500 kts | 90° |
| 2026-05-05 11:28 | 39.30473 | -0.12353 | 35929 ft | 500 kts | 90° |
| 2026-05-05 11:29 | 39.30929 | -0.03386 | 35931 ft | 500 kts | 90° |
| 2026-05-05 11:29 | 39.31376 | 0.05573 | 35937 ft | 499 kts | 90° |
| 2026-05-05 11:30 | 39.31811 | 0.14510 | 35953 ft | 498 kts | 91° |
| 2026-05-05 11:30 | 39.32242 | 0.23431 | 35959 ft | 498 kts | 91° |
| 2026-05-05 11:31 | 39.32668 | 0.32349 | 35959 ft | 497 kts | 91° |
| 2026-05-05 11:31 | 39.33087 | 0.41263 | 35941 ft | 497 kts | 91° |
| 2026-05-05 11:32 | 39.33489 | 0.50108 | 35952 ft | 497 kts | 91° |
| 2026-05-05 11:32 | 39.33887 | 0.59011 | 35953 ft | 496 kts | 91° |
| 2026-05-05 11:33 | 39.34281 | 0.67912 | 35953 ft | 496 kts | 91° |
| 2026-05-05 11:33 | 39.34668 | 0.76814 | 35934 ft | 496 kts | 91° |
| 2026-05-05 11:34 | 39.35049 | 0.85721 | 35963 ft | 497 kts | 91° |
| 2026-05-05 11:34 | 39.35424 | 0.94637 | 35949 ft | 497 kts | 91° |
| 2026-05-05 11:35 | 39.35793 | 1.03562 | 35941 ft | 498 kts | 92° |
| 2026-05-05 11:35 | 39.36153 | 1.12504 | 35939 ft | 498 kts | 92° |
| 2026-05-05 11:36 | 39.36498 | 1.21436 | 35921 ft | 498 kts | 92° |
| 2026-05-05 11:36 | 39.36845 | 1.30388 | 35923 ft | 499 kts | 92° |
| 2026-05-05 11:37 | 39.37195 | 1.39347 | 35927 ft | 499 kts | 92° |
| 2026-05-05 11:37 | 39.37534 | 1.48301 | 35932 ft | 499 kts | 92° |
| 2026-05-05 11:38 | 39.37862 | 1.57211 | 35912 ft | 499 kts | 92° |
| 2026-05-05 11:38 | 39.38184 | 1.66170 | 35927 ft | 499 kts | 92° |
| 2026-05-05 11:39 | 39.38498 | 1.75119 | 35938 ft | 499 kts | 92° |
| 2026-05-05 11:39 | 39.38806 | 1.84075 | 35943 ft | 499 kts | 92° |
| 2026-05-05 11:40 | 39.39105 | 1.93031 | 35922 ft | 498 kts | 92° |
| 2026-05-05 11:40 | 39.39396 | 2.01970 | 35952 ft | 497 kts | 92° |
| 2026-05-05 11:41 | 39.39691 | 2.10901 | 35958 ft | 497 kts | 92° |
| 2026-05-05 11:41 | 39.39967 | 2.19815 | 35956 ft | 497 kts | 92° |
| 2026-05-05 11:42 | 39.40236 | 2.28758 | 35930 ft | 499 kts | 92° |
| 2026-05-05 11:42 | 39.40489 | 2.37702 | 35926 ft | 499 kts | 92° |
| 2026-05-05 11:43 | 39.40748 | 2.46674 | 35945 ft | 500 kts | 92° |
| 2026-05-05 11:43 | 39.40879 | 2.51162 | 35661 ft | 499 kts | 92° |
| 2026-05-05 11:43 | 39.41007 | 2.55646 | 34424 ft | 502 kts | 93° |
| 2026-05-05 11:43 | 39.41131 | 2.60155 | 33363 ft | 499 kts | 93° |
| 2026-05-05 11:44 | 39.41254 | 2.64618 | 32358 ft | 494 kts | 93° |
| 2026-05-05 11:44 | 39.41373 | 2.69027 | 31390 ft | 488 kts | 93° |
| 2026-05-05 11:44 | 39.41492 | 2.73384 | 30507 ft | 482 kts | 93° |
| 2026-05-05 11:44 | 39.41605 | 2.77683 | 29583 ft | 477 kts | 93° |
| 2026-05-05 11:45 | 39.41712 | 2.81946 | 28647 ft | 470 kts | 93° |
| 2026-05-05 11:45 | 39.41819 | 2.86107 | 28132 ft | 454 kts | 93° |
| 2026-05-05 11:45 | 39.41922 | 2.90117 | 27625 ft | 440 kts | 93° |
| 2026-05-05 11:45 | 39.42022 | 2.94012 | 27159 ft | 427 kts | 93° |
| 2026-05-05 11:46 | 39.42117 | 2.97842 | 26671 ft | 426 kts | 93° |
| 2026-05-05 11:46 | 39.42206 | 3.01666 | 26181 ft | 425 kts | 93° |
| 2026-05-05 11:46 | 39.42291 | 3.05481 | 25648 ft | 424 kts | 93° |
| 2026-05-05 11:46 | 39.42375 | 3.09294 | 25159 ft | 424 kts | 93° |
| 2026-05-05 11:47 | 39.42456 | 3.13100 | 24625 ft | 424 kts | 93° |
| 2026-05-05 11:47 | 39.42538 | 3.16920 | 24092 ft | 425 kts | 92° |
| 2026-05-05 11:47 | 39.42625 | 3.20743 | 23544 ft | 426 kts | 91° |
| 2026-05-05 11:47 | 39.43021 | 3.24559 | 22947 ft | 431 kts | 78° |
| 2026-05-05 11:48 | 39.45466 | 3.31553 | 21987 ft | 426 kts | 58° |
| 2026-05-05 11:48 | 39.46984 | 3.34836 | 21507 ft | 424 kts | 59° |
| 2026-05-05 11:48 | 39.48488 | 3.38108 | 21025 ft | 422 kts | 59° |
| 2026-05-05 11:49 | 39.49975 | 3.41358 | 20634 ft | 417 kts | 59° |
| 2026-05-05 11:49 | 39.51448 | 3.44584 | 20181 ft | 415 kts | 59° |
| 2026-05-05 11:49 | 39.52884 | 3.47731 | 19857 ft | 409 kts | 59° |
| 2026-05-05 11:49 | 39.54331 | 3.50893 | 19402 ft | 407 kts | 59° |
| 2026-05-05 11:50 | 39.55793 | 3.54085 | 18997 ft | 404 kts | 59° |
| 2026-05-05 11:50 | 39.57199 | 3.57162 | 18617 ft | 401 kts | 59° |
| 2026-05-05 11:50 | 39.58616 | 3.60266 | 18239 ft | 398 kts | 59° |
| 2026-05-05 11:50 | 39.60011 | 3.63328 | 17605 ft | 394 kts | 59° |
| 2026-05-05 11:51 | 39.61398 | 3.66375 | 17182 ft | 390 kts | 59° |
| 2026-05-05 11:51 | 39.62771 | 3.69396 | 16782 ft | 387 kts | 59° |
| 2026-05-05 11:51 | 39.64134 | 3.72391 | 16370 ft | 384 kts | 59° |
| 2026-05-05 11:51 | 39.65485 | 3.75363 | 15986 ft | 381 kts | 59° |
| 2026-05-05 11:52 | 39.66828 | 3.78313 | 15596 ft | 378 kts | 59° |
| 2026-05-05 11:52 | 39.68162 | 3.81243 | 15219 ft | 375 kts | 59° |
| 2026-05-05 11:52 | 39.69482 | 3.84150 | 14867 ft | 372 kts | 59° |
| 2026-05-05 11:52 | 39.70784 | 3.87037 | 14501 ft | 369 kts | 60° |
| 2026-05-05 11:53 | 39.72077 | 3.89907 | 14137 ft | 367 kts | 60° |
| 2026-05-05 11:53 | 39.73500 | 3.92627 | 13778 ft | 362 kts | 45° |
| 2026-05-05 11:53 | 39.75494 | 3.94499 | 13083 ft | 352 kts | 20° |
| 2026-05-05 11:53 | 39.77835 | 3.95168 | 12337 ft | 341 kts | 356° |
| 2026-05-05 11:54 | 39.80125 | 3.94694 | 11668 ft | 328 kts | 339° |
| 2026-05-05 11:54 | 39.82341 | 3.93975 | 11272 ft | 329 kts | 345° |
| 2026-05-05 11:54 | 39.84606 | 3.93556 | 10859 ft | 331 kts | 352° |
| 2026-05-05 11:54 | 39.86917 | 3.93457 | 10437 ft | 332 kts | 359° |
| 2026-05-05 11:55 | 39.89225 | 3.93696 | 10009 ft | 334 kts | 6° |
| 2026-05-05 11:55 | 39.91508 | 3.94250 | 9725 ft | 329 kts | 12° |
| 2026-05-05 11:55 | 39.93674 | 3.95058 | 9562 ft | 320 kts | 18° |
| 2026-05-05 11:55 | 39.95728 | 3.96132 | 9114 ft | 315 kts | 24° |
| 2026-05-05 11:56 | 39.97648 | 3.97479 | 8494 ft | 311 kts | 32° |
| 2026-05-05 11:56 | 39.99404 | 3.99053 | 7959 ft | 303 kts | 38° |
| 2026-05-05 11:56 | 40.00995 | 4.00793 | 7483 ft | 294 kts | 43° |
| 2026-05-05 11:56 | 40.02419 | 4.02652 | 7061 ft | 286 kts | 48° |
| 2026-05-05 11:57 | 40.03679 | 4.04622 | 6636 ft | 280 kts | 54° |
| 2026-05-05 11:57 | 40.04768 | 4.06690 | 6213 ft | 272 kts | 59° |
| 2026-05-05 11:57 | 40.05684 | 4.08803 | 5779 ft | 265 kts | 65° |
| 2026-05-05 11:57 | 40.06452 | 4.10983 | 5371 ft | 263 kts | 70° |
| 2026-05-05 11:58 | 40.07070 | 4.13228 | 4959 ft | 262 kts | 75° |
| 2026-05-05 11:58 | 40.07536 | 4.15512 | 4541 ft | 261 kts | 80° |
| 2026-05-05 11:58 | 40.07851 | 4.17825 | 4104 ft | 260 kts | 85° |
| 2026-05-05 11:58 | 40.08016 | 4.20181 | 3672 ft | 259 kts | 90° |
| 2026-05-05 11:59 | 40.08030 | 4.22522 | 3255 ft | 258 kts | 95° |
| 2026-05-05 11:59 | 40.07713 | 4.24755 | 3048 ft | 244 kts | 122° |
| 2026-05-05 11:59 | 40.06561 | 4.26174 | 2989 ft | 221 kts | 163° |
| 2026-05-05 11:59 | 40.05137 | 4.26197 | 3001 ft | 202 kts | 202° |
| 2026-05-05 12:00 | 40.03875 | 4.25493 | 2991 ft | 193 kts | 193° |
| 2026-05-05 12:00 | 40.02554 | 4.25201 | 3004 ft | 193 kts | 189° |
| 2026-05-05 12:00 | 40.01256 | 4.24949 | 2969 ft | 189 kts | 190° |
| 2026-05-05 12:00 | 39.99943 | 4.24682 | 2808 ft | 189 kts | 188° |
| 2026-05-05 12:01 | 39.98624 | 4.24414 | 2589 ft | 193 kts | 191° |
| 2026-05-05 12:01 | 39.97283 | 4.24136 | 2338 ft | 198 kts | 190° |
| 2026-05-05 12:01 | 39.95953 | 4.23862 | 2085 ft | 184 kts | 189° |
| 2026-05-05 12:01 | 39.94776 | 4.23619 | 1850 ft | 163 kts | 190° |
| 2026-05-05 12:02 | 39.93718 | 4.23402 | 1651 ft | 145 kts | 191° |
| 2026-05-05 12:02 | 39.92733 | 4.23199 | 1438 ft | 140 kts | 191° |
| 2026-05-05 12:02 | 39.91808 | 4.23008 | 1261 ft | 134 kts | 193° |
| 2026-05-05 12:02 | 39.90883 | 4.22818 | 1087 ft | 132 kts | 190° |
| 2026-05-05 12:03 | 39.89976 | 4.22631 | 904 ft | 131 kts | 189° |
| 2026-05-05 12:03 | 39.89373 | 4.22507 | 780 ft | 133 kts | 188° |
| 2026-05-05 12:03 | 39.88166 | 4.22258 | 544 ft | 134 kts | 187° |
| 2026-05-05 12:03 | 39.87261 | 4.22072 | 365 ft | 131 kts | 187° |
| 2026-05-05 12:04 | 39.86409 | 4.21898 | 303 ft | 107 kts | 189° |
| 2026-05-05 12:04 | 39.85831 | 4.21778 | 301 ft | 55 kts | 188° |
| 2026-05-05 12:04 | 39.85496 | 4.21799 | 286 ft | 44 kts | 159° |
| 2026-05-05 12:04 | 39.85381 | 4.21887 | 282 ft | 15 kts | 108° |
| 2026-05-05 12:05 | 39.85455 | 4.21939 | 284 ft | 30 kts | 7° |
| 2026-05-05 12:05 | 39.85656 | 4.21982 | 292 ft | 51 kts | 10° |
| 2026-05-05 12:05 | 39.86005 | 4.22057 | 300 ft | 50 kts | 9° |
| 2026-05-05 12:05 | 39.86184 | 4.22136 | 292 ft | 15 kts | 77° |
| 2026-05-05 12:06 | 39.86221 | 4.22268 | 288 ft | 17 kts | 23° |
| 2026-05-05 12:06 | 39.86275 | 4.22310 | 287 ft | 13 kts | 94° |
| 2026-05-05 12:06 | 39.86261 | 4.22402 | 286 ft | 0 kts | 101° |